createdAt,value
2017-06-04T00:02:19.367Z,74.96
2017-06-04T00:04:52.174Z,76.76
2017-06-04T00:07:25.928Z,81.01
2017-06-04T00:09:58.832Z,79.46
2017-06-04T00:12:45.214Z,78.14
2017-06-04T00:15:18.576Z,73.91
2017-06-04T00:17:52.406Z,75.63
2017-06-04T00:20:26.558Z,79.23
2017-06-04T00:23:00.769Z,77.73
2017-06-04T00:25:33.817Z,74.69
2017-06-04T00:28:07.184Z,75.48
2017-06-04T00:30:41.216Z,74.94
2017-06-04T00:33:15.181Z,72.41
2017-06-04T00:35:49.278Z,79.39
2017-06-04T00:38:22.699Z,77.94
2017-06-04T00:40:56.821Z,78.76
2017-06-04T00:43:29.350Z,78.96
2017-06-04T00:46:02.062Z,77.93
2017-06-04T00:48:34.671Z,76.63
2017-06-04T00:51:08.026Z,76.56
2017-06-04T00:53:42.034Z,76.56
2017-06-04T00:56:15.507Z,72.83
2017-06-04T00:58:48.225Z,71.48
2017-06-04T01:01:21.715Z,75.37
2017-06-04T01:03:55.628Z,73.36
2017-06-04T01:06:25.701Z,72.25
2017-06-04T01:08:58.744Z,76.07
2017-06-04T01:11:28.847Z,74.96
2017-06-04T01:14:02.125Z,75.99
2017-06-04T01:16:35.011Z,71.76
2017-06-04T01:19:07.823Z,73.40
2017-06-04T01:21:40.704Z,80.49
2017-06-04T01:24:13.708Z,78.14
2017-06-04T01:26:46.663Z,75.92
2017-06-04T01:29:19.439Z,72.57
2017-06-04T01:31:52.003Z,78.77
2017-06-04T01:34:22.049Z,78.66
2017-06-04T01:36:58.381Z,73.98
2017-06-04T01:39:28.830Z,72.82
2017-06-04T01:42:01.368Z,75.32
2017-06-04T01:44:34.150Z,77.05
2017-06-04T01:47:07.091Z,73.21
2017-06-04T01:49:40.824Z,74.21
2017-06-04T01:52:13.629Z,76.87
2017-06-04T01:54:46.266Z,81.12
2017-06-04T01:57:16.795Z,82.46
2017-06-04T01:59:47.396Z,81.70
2017-06-04T02:02:20.298Z,79.75
2017-06-04T02:04:53.029Z,74.62
2017-06-04T02:07:25.350Z,75.12
2017-06-04T02:09:58.042Z,73.73
2017-06-04T02:12:30.686Z,73.53
2017-06-04T02:15:03.864Z,79.16
2017-06-04T02:17:46.971Z,81.42
2017-06-04T02:20:20.129Z,75.16
2017-06-04T02:22:52.851Z,76.76
2017-06-04T02:25:22.903Z,76.20
2017-06-04T02:27:55.543Z,74.35
2017-06-04T02:30:28.246Z,78.07
2017-06-04T02:33:02.767Z,77.60
2017-06-04T02:35:35.011Z,74.04
2017-06-04T02:38:07.671Z,77.50
2017-06-04T02:40:42.503Z,76.10
2017-06-04T02:43:12.919Z,77.52
2017-06-04T02:45:45.401Z,82.16
2017-06-04T02:48:18.183Z,76.17
2017-06-04T02:50:51.874Z,80.77
2017-06-04T02:53:25.581Z,80.32
2017-06-04T02:55:59.268Z,78.59
2017-06-04T02:58:33.135Z,78.11
2017-06-04T03:01:07.019Z,74.93
2017-06-04T03:03:40.967Z,79.95
2017-06-04T03:06:14.451Z,80.80
2017-06-04T03:08:47.411Z,79.84
2017-06-04T03:11:17.697Z,80.23
2017-06-04T03:13:50.883Z,79.67
2017-06-04T03:16:24.230Z,79.85
2017-06-04T03:18:56.934Z,79.92
2017-06-04T03:21:29.650Z,79.96
2017-06-04T03:23:59.697Z,81.69
2017-06-04T03:26:30.175Z,78.39
2017-06-04T03:29:02.600Z,80.98
2017-06-04T03:31:35.295Z,80.86
2017-06-04T03:34:05.403Z,83.24
2017-06-04T03:36:37.649Z,82.86
2017-06-04T03:39:10.540Z,84.53
2017-06-04T03:41:43.386Z,85.93
2017-06-04T03:44:16.101Z,83.54
2017-06-04T03:46:48.798Z,82.34
2017-06-04T03:49:30.629Z,82.95
2017-06-04T03:52:00.614Z,83.58
2017-06-04T03:54:33.126Z,81.19
2017-06-04T03:57:05.864Z,82.04
2017-06-04T03:59:39.694Z,81.79
2017-06-04T04:02:09.773Z,81.42
2017-06-04T04:04:42.350Z,78.59
2017-06-04T04:07:15.141Z,78.58
2017-06-04T04:09:48.097Z,79.65
2017-06-04T04:12:20.807Z,82.79
2017-06-04T04:14:53.546Z,82.84
2017-06-04T04:17:26.092Z,82.63
2017-06-04T04:19:59.027Z,80.22
2017-06-04T04:22:31.419Z,76.68
2017-06-04T04:25:04.129Z,76.24
2017-06-04T04:27:36.656Z,82.18
2017-06-04T04:30:09.323Z,75.26
2017-06-04T04:32:42.045Z,79.40
2017-06-04T04:35:15.250Z,80.56
2017-06-04T04:37:47.901Z,82.08
2017-06-04T04:40:20.550Z,83.35
2017-06-04T04:42:53.372Z,75.93
2017-06-04T04:45:25.990Z,76.39
2017-06-04T04:47:58.638Z,74.92
2017-06-04T04:50:31.702Z,82.13
2017-06-04T04:53:04.361Z,82.42
2017-06-04T04:55:34.537Z,78.61
2017-06-04T04:58:06.910Z,77.63
2017-06-04T05:00:39.660Z,76.89
2017-06-04T05:03:12.316Z,78.63
2017-06-04T05:05:45.016Z,80.44
2017-06-04T05:08:17.682Z,78.39
2017-06-04T05:10:50.575Z,80.08
2017-06-04T05:13:20.746Z,81.38
2017-06-04T05:15:53.156Z,83.65
2017-06-04T05:18:25.909Z,78.73
2017-06-04T05:20:58.899Z,78.41
2017-06-04T05:23:31.875Z,75.44
2017-06-04T05:26:07.207Z,76.74
2017-06-04T05:28:45.881Z,77.92
2017-06-04T05:31:15.965Z,78.68
2017-06-04T05:33:49.457Z,80.20
2017-06-04T05:36:22.092Z,79.14
2017-06-04T05:38:54.762Z,79.65
2017-06-04T05:41:27.119Z,77.83
2017-06-04T05:43:59.900Z,81.63
2017-06-04T05:46:32.423Z,77.93
2017-06-04T05:49:04.856Z,77.67
2017-06-04T05:51:37.490Z,78.14
2017-06-04T05:54:09.892Z,76.95
2017-06-04T05:56:42.383Z,82.19
2017-06-04T05:59:08.731Z,81.07
2017-06-04T06:01:41.599Z,82.25
2017-06-04T06:04:14.351Z,78.73
2017-06-04T06:06:47.288Z,76.26
2017-06-04T06:09:13.657Z,76.63
2017-06-04T06:11:40.004Z,80.21
2017-06-04T06:14:06.376Z,81.83
2017-06-04T06:16:39.068Z,79.24
2017-06-04T06:19:12.183Z,79.07
2017-06-04T06:21:42.444Z,79.62
2017-06-04T06:24:14.788Z,76.22
2017-06-04T06:26:47.868Z,78.12
2017-06-04T06:29:14.228Z,75.25
2017-06-04T06:31:43.914Z,76.46
2017-06-04T06:34:10.263Z,77.78
2017-06-04T06:36:36.612Z,75.90
2017-06-04T06:39:03.081Z,75.74
2017-06-04T06:41:29.419Z,77.30
2017-06-04T06:43:55.770Z,75.32
2017-06-04T06:46:22.106Z,77.38
2017-06-04T06:48:55.238Z,75.62
2017-06-04T06:51:25.650Z,75.93
2017-06-04T06:53:56.687Z,75.40
2017-06-04T06:56:29.115Z,74.90
2017-06-04T06:58:55.473Z,76.05
2017-06-04T07:01:21.837Z,76.32
2017-06-04T07:03:48.212Z,75.70
2017-06-04T07:06:14.560Z,74.77
2017-06-04T07:08:49.308Z,73.61
2017-06-04T07:11:22.162Z,73.77
2017-06-04T07:13:48.524Z,77.93
2017-06-04T07:16:14.889Z,74.78
2017-06-04T07:18:41.241Z,76.05
2017-06-04T07:21:07.598Z,71.58
2017-06-04T07:23:33.988Z,73.44
2017-06-04T07:28:53.144Z,74.74
2017-06-04T07:31:19.512Z,74.46
2017-06-04T07:33:45.913Z,74.63
2017-06-04T07:36:12.271Z,75.27
2017-06-04T07:41:31.571Z,71.25
2017-06-04T07:43:57.906Z,70.84
2017-06-04T07:46:24.227Z,69.20
2017-06-04T07:48:50.558Z,74.11
2017-06-04T07:51:16.943Z,69.15
2017-06-04T07:53:43.335Z,67.93
2017-06-04T07:56:09.696Z,69.78
2017-06-04T07:58:36.666Z,70.84
2017-06-04T08:01:03.035Z,69.19
2017-06-04T08:03:29.443Z,72.88
2017-06-04T08:05:55.838Z,70.85
2017-06-04T08:08:22.226Z,67.67
2017-06-04T08:10:48.564Z,70.13
2017-06-04T08:13:14.895Z,67.45
2017-06-04T08:15:41.223Z,70.72
2017-06-04T08:18:07.661Z,71.33
2017-06-04T08:20:33.995Z,70.11
2017-06-04T08:23:00.346Z,70.95
2017-06-04T08:25:26.713Z,73.06
2017-06-04T08:27:53.074Z,72.10
2017-06-04T08:30:19.475Z,71.80
2017-06-04T08:32:45.834Z,70.34
2017-06-04T08:35:12.184Z,71.71
2017-06-04T08:37:38.510Z,72.17
2017-06-04T08:40:04.865Z,74.55
2017-06-04T08:42:31.215Z,73.70
2017-06-04T08:44:57.566Z,72.83
2017-06-04T08:47:23.923Z,71.46
2017-06-04T08:49:50.284Z,71.72
2017-06-04T08:52:16.659Z,69.66
2017-06-04T08:54:43.032Z,68.19
2017-06-04T08:57:09.378Z,68.42
2017-06-04T08:59:35.729Z,68.36
2017-06-04T09:02:02.079Z,64.98
2017-06-04T09:04:28.469Z,67.06
2017-06-04T09:06:54.885Z,66.99
2017-06-04T09:09:21.223Z,67.54
2017-06-04T09:12:12.092Z,65.49
2017-06-04T09:14:38.570Z,64.09
2017-06-04T09:17:04.935Z,65.34
2017-06-04T09:19:31.297Z,64.01
2017-06-04T09:21:57.661Z,64.89
2017-06-04T09:24:24.028Z,60.87
2017-06-04T09:26:50.389Z,63.08
2017-06-04T09:29:16.734Z,63.82
2017-06-04T09:31:43.091Z,64.12
2017-06-04T09:34:09.484Z,65.46
2017-06-04T09:36:35.862Z,63.87
2017-06-04T09:39:02.310Z,63.86
2017-06-04T09:41:28.668Z,64.30
2017-06-04T09:43:55.043Z,64.96
2017-06-04T09:46:21.402Z,63.07
2017-06-04T09:48:47.799Z,62.35
2017-06-04T09:51:14.162Z,61.35
2017-06-04T09:53:40.521Z,61.76
2017-06-04T09:56:06.879Z,60.57
2017-06-04T09:58:33.239Z,59.42
2017-06-04T10:00:59.578Z,57.66
2017-06-04T10:03:31.859Z,59.98
2017-06-04T10:06:04.329Z,61.56
2017-06-04T10:08:30.717Z,61.91
2017-06-04T10:11:05.410Z,60.21
2017-06-04T10:13:31.784Z,61.96
2017-06-04T10:15:58.156Z,60.71
2017-06-04T10:18:24.534Z,60.69
2017-06-04T10:20:50.959Z,60.65
2017-06-04T10:23:17.317Z,58.21
2017-06-04T10:25:43.673Z,59.33
2017-06-04T10:28:10.041Z,58.95
2017-06-04T10:30:36.382Z,61.79
2017-06-04T10:33:02.782Z,58.74
2017-06-04T10:35:29.135Z,58.53
2017-06-04T10:37:55.561Z,55.85
2017-06-04T10:40:21.949Z,55.63
2017-06-04T10:42:54.451Z,56.14
2017-06-04T10:45:26.870Z,56.25
2017-06-04T10:47:59.097Z,55.59
2017-06-04T10:53:18.012Z,52.73
2017-06-04T10:55:44.378Z,50.99
2017-06-04T10:58:16.807Z,49.24
2017-06-04T11:00:43.167Z,47.78
2017-06-04T11:03:09.585Z,48.30
2017-06-04T11:05:35.966Z,46.80
2017-06-04T11:08:19.413Z,45.76
2017-06-04T11:10:45.802Z,45.97
2017-06-04T11:13:20.544Z,45.69
2017-06-04T11:15:50.663Z,46.21
2017-06-04T11:18:23.930Z,44.78
2017-06-04T11:20:57.003Z,45.95
2017-06-04T11:23:30.730Z,43.43
2017-06-04T11:26:01.644Z,43.28
2017-06-04T11:28:34.247Z,43.11
2017-06-04T11:31:06.942Z,44.64
2017-06-04T11:33:36.690Z,44.08
2017-06-04T11:36:09.085Z,42.71
2017-06-04T11:38:39.115Z,40.67
2017-06-04T11:41:11.536Z,40.29
2017-06-04T11:43:44.245Z,44.56
2017-06-04T11:46:14.383Z,42.33
2017-06-04T11:48:40.974Z,43.91
2017-06-04T11:51:07.314Z,42.87
2017-06-04T11:53:33.931Z,44.08
2017-06-04T11:56:00.422Z,39.88
2017-06-04T11:58:33.326Z,38.97
2017-06-04T12:01:04.208Z,41.63
2017-06-04T12:03:39.012Z,41.28
2017-06-04T12:06:11.555Z,42.20
2017-06-04T12:08:44.255Z,42.46
2017-06-04T12:11:14.051Z,41.88
2017-06-04T12:13:40.483Z,43.65
2017-06-04T12:16:10.629Z,44.58
2017-06-04T12:18:42.984Z,45.98
2017-06-04T12:24:01.811Z,46.04
2017-06-04T12:26:28.962Z,45.96
2017-06-04T12:28:56.299Z,45.45
2017-06-04T12:31:22.713Z,45.80
2017-06-04T12:33:49.080Z,48.30
2017-06-04T12:36:16.042Z,47.34
2017-06-04T12:38:43.056Z,47.16
2017-06-04T12:41:10.173Z,46.23
2017-06-04T12:43:37.252Z,46.26
2017-06-04T12:46:03.907Z,44.83
2017-06-04T12:48:30.635Z,47.12
2017-06-04T12:50:57.002Z,45.03
2017-06-04T12:53:23.355Z,46.30
2017-06-04T12:55:50.546Z,44.99
2017-06-04T12:58:17.686Z,47.67
2017-06-04T13:00:44.720Z,49.68
2017-06-04T13:03:11.260Z,50.01
2017-06-04T13:05:37.634Z,51.71
2017-06-04T13:08:03.993Z,51.30
2017-06-04T13:10:30.690Z,49.17
2017-06-04T13:13:01.334Z,49.40
2017-06-04T13:15:34.301Z,49.48
2017-06-04T13:18:07.168Z,48.75
2017-06-04T13:20:39.376Z,47.16
2017-06-04T13:23:05.721Z,46.16
2017-06-04T13:25:36.130Z,45.62
2017-06-04T13:28:02.504Z,45.84
2017-06-04T13:30:28.842Z,48.18
2017-06-04T13:32:55.624Z,49.62
2017-06-04T13:35:28.601Z,49.60
2017-06-04T13:37:55.012Z,49.53
2017-06-04T13:40:21.503Z,50.29
2017-06-04T13:42:47.894Z,50.67
2017-06-04T13:45:14.260Z,49.92
2017-06-04T13:47:40.654Z,50.02
2017-06-04T13:50:06.979Z,48.55
2017-06-04T13:52:33.344Z,48.89
2017-06-04T13:54:59.690Z,49.68
2017-06-04T13:57:26.055Z,48.92
2017-06-04T13:59:52.443Z,48.26
2017-06-04T14:02:19.389Z,50.56
2017-06-04T14:04:46.429Z,48.28
2017-06-04T14:07:12.843Z,48.71
2017-06-04T14:09:39.175Z,50.33
2017-06-04T14:12:05.505Z,48.66
2017-06-04T14:14:32.806Z,46.88
2017-06-04T14:16:59.171Z,46.37
2017-06-04T14:19:32.167Z,46.55
2017-06-04T14:22:05.254Z,45.70
2017-06-04T14:24:38.199Z,45.15
2017-06-04T14:27:28.525Z,46.23
2017-06-04T14:30:01.595Z,46.76
2017-06-04T14:32:33.877Z,46.45
2017-06-04T14:35:06.433Z,50.64
2017-06-04T14:37:39.172Z,50.17
2017-06-04T14:40:12.165Z,49.54
2017-06-04T14:42:45.328Z,50.09
2017-06-04T14:45:18.046Z,49.52
2017-06-04T14:47:50.869Z,49.53
2017-06-04T14:50:24.354Z,49.97
2017-06-04T14:52:51.416Z,50.12
2017-06-04T14:55:18.574Z,49.60
2017-06-04T14:57:44.977Z,50.42
2017-06-04T15:00:12.236Z,50.62
2017-06-04T15:02:39.347Z,50.40
2017-06-04T15:05:11.692Z,48.59
2017-06-04T15:08:01.922Z,50.23
2017-06-04T15:10:32.109Z,48.80
2017-06-04T15:13:03.000Z,49.10
2017-06-04T15:15:36.162Z,50.80
2017-06-04T15:18:19.585Z,50.29
2017-06-04T15:20:52.223Z,50.36
2017-06-04T15:23:18.719Z,50.55
2017-06-04T15:25:45.080Z,49.87
2017-06-04T15:28:11.402Z,50.04
2017-06-04T15:30:44.208Z,48.81
2017-06-04T15:33:16.878Z,47.52
2017-06-04T15:35:49.639Z,48.19
2017-06-04T15:38:20.087Z,48.10
2017-06-04T15:40:52.711Z,49.15
2017-06-04T15:43:25.601Z,47.23
2017-06-04T15:45:56.105Z,47.03
2017-06-04T15:48:28.867Z,48.37
2017-06-04T15:51:01.155Z,47.95
2017-06-04T15:53:34.494Z,48.54
2017-06-04T15:56:01.138Z,50.22
2017-06-04T15:58:28.137Z,51.97
2017-06-04T16:00:56.571Z,53.83
2017-06-04T16:03:22.943Z,51.32
2017-06-04T16:05:49.433Z,52.70
2017-06-04T16:08:15.788Z,51.92
2017-06-04T16:10:42.271Z,52.67
2017-06-04T16:13:08.638Z,51.69
2017-06-04T16:15:35.630Z,52.78
2017-06-04T16:18:02.054Z,52.64
2017-06-04T16:20:28.407Z,52.44
2017-06-04T16:22:54.754Z,52.78
2017-06-04T16:25:21.796Z,53.79
2017-06-04T16:27:48.185Z,52.61
2017-06-04T16:30:14.554Z,51.32
2017-06-04T16:32:41.677Z,52.01
2017-06-04T16:35:08.967Z,50.55
2017-06-04T16:37:35.422Z,50.10
2017-06-04T16:40:01.815Z,49.62
2017-06-04T16:42:28.181Z,48.96
2017-06-04T16:44:55.159Z,49.42
2017-06-04T16:47:21.531Z,49.45
2017-06-04T16:49:48.011Z,49.30
2017-06-04T16:52:14.355Z,53.33
2017-06-04T16:54:40.730Z,51.18
2017-06-04T16:57:07.091Z,50.30
2017-06-04T16:59:33.510Z,54.60
2017-06-04T17:01:59.958Z,50.83
2017-06-04T17:04:26.328Z,51.98
2017-06-04T17:06:59.374Z,51.62
2017-06-04T17:09:25.777Z,51.88
2017-06-04T17:11:52.171Z,52.68
2017-06-04T17:14:24.419Z,53.67
2017-06-04T17:16:57.131Z,51.47
2017-06-04T17:19:29.853Z,53.05
2017-06-04T17:21:56.274Z,51.67
2017-06-04T17:24:22.631Z,56.42
2017-06-04T17:26:55.930Z,53.15
2017-06-04T17:29:28.348Z,51.84
2017-06-04T17:32:00.965Z,52.94
2017-06-04T17:34:33.556Z,53.35
2017-06-04T17:37:05.915Z,52.23
2017-06-04T17:39:38.593Z,57.05
2017-06-04T17:42:08.600Z,54.00
2017-06-04T17:44:41.161Z,52.50
2017-06-04T17:47:11.552Z,52.65
2017-06-04T17:49:43.893Z,52.73
2017-06-04T17:52:16.597Z,52.91
2017-06-04T17:54:46.937Z,60.96
2017-06-04T17:57:19.845Z,61.27
2017-06-04T17:59:52.913Z,58.09
2017-06-04T18:02:25.245Z,58.86
2017-06-04T18:04:58.073Z,58.56
2017-06-04T18:07:30.676Z,57.82
2017-06-04T18:10:03.600Z,57.28
2017-06-04T18:12:36.076Z,58.44
2017-06-04T18:15:02.453Z,58.21
2017-06-04T18:17:29.392Z,55.68
2017-06-04T18:19:55.735Z,55.66
2017-06-04T18:22:22.158Z,55.15
2017-06-04T18:24:48.521Z,55.22
2017-06-04T18:27:15.097Z,55.32
2017-06-04T18:29:41.485Z,55.41
2017-06-04T18:32:07.849Z,55.49
2017-06-04T18:34:34.214Z,60.02
2017-06-04T18:37:00.543Z,59.73
2017-06-04T18:39:26.955Z,59.91
2017-06-04T18:41:53.371Z,57.64
2017-06-04T18:44:25.951Z,57.10
2017-06-04T18:46:58.923Z,59.76
2017-06-04T18:49:29.083Z,60.32
2017-06-04T18:52:01.316Z,60.43
2017-06-04T18:57:20.296Z,59.73
2017-06-04T18:59:46.645Z,62.18
2017-06-04T19:02:13.033Z,61.44
2017-06-04T19:04:39.446Z,58.06
2017-06-04T19:07:05.835Z,56.98
2017-06-04T19:09:32.236Z,56.32
2017-06-04T19:11:58.615Z,56.65
2017-06-04T19:14:25.032Z,54.98
2017-06-04T19:16:51.415Z,54.65
2017-06-04T19:19:24.557Z,52.96
2017-06-04T19:21:57.081Z,54.16
2017-06-04T19:24:43.107Z,51.83
2017-06-04T19:27:09.607Z,52.31
2017-06-04T19:29:36.023Z,50.90
2017-06-04T19:32:02.813Z,51.49
2017-06-04T19:34:29.214Z,49.28
2017-06-04T19:37:02.239Z,49.86
2017-06-04T19:39:37.691Z,48.86
2017-06-04T19:42:19.885Z,49.50
2017-06-04T19:44:52.522Z,51.62
2017-06-04T19:47:24.941Z,49.76
2017-06-04T19:49:57.560Z,47.22
2017-06-04T19:52:30.106Z,48.19
2017-06-04T19:55:03.006Z,46.11
2017-06-04T19:57:35.596Z,49.15
2017-06-04T20:00:02.029Z,46.93
2017-06-04T20:02:28.438Z,47.44
2017-06-04T20:04:54.780Z,46.08
2017-06-04T20:07:21.222Z,48.57
2017-06-04T20:09:53.578Z,46.09
2017-06-04T20:12:26.455Z,47.87
2017-06-04T20:14:56.645Z,46.65
2017-06-04T20:17:28.894Z,48.32
2017-06-04T20:20:01.662Z,45.91
2017-06-04T20:22:34.448Z,47.24
2017-06-04T20:25:07.271Z,47.71
2017-06-04T20:27:39.631Z,48.76
2017-06-04T20:30:26.434Z,47.08
2017-06-04T20:32:52.797Z,49.44
2017-06-04T20:35:19.175Z,48.11
2017-06-04T20:37:52.069Z,47.34
2017-06-04T20:40:33.382Z,46.40
2017-06-04T20:43:07.245Z,46.04
2017-06-04T20:45:39.893Z,46.00
2017-06-04T20:48:12.717Z,46.51
2017-06-04T20:50:45.656Z,48.04
2017-06-04T20:53:18.359Z,48.47
2017-06-04T20:55:51.220Z,47.45
2017-06-04T20:58:23.738Z,47.82
2017-06-04T21:00:56.561Z,47.99
2017-06-04T21:03:31.128Z,46.60
2017-06-04T21:06:03.709Z,46.98
2017-06-04T21:08:30.066Z,49.42
2017-06-04T21:11:02.456Z,49.55
2017-06-04T21:13:35.795Z,52.39
2017-06-04T21:16:06.434Z,53.74
2017-06-04T21:18:39.771Z,54.00
2017-06-04T21:21:06.131Z,54.80
2017-06-04T21:23:39.002Z,53.44
2017-06-04T21:26:11.609Z,53.83
2017-06-04T21:28:38.037Z,52.88
2017-06-04T21:31:10.440Z,53.73
2017-06-04T21:33:42.719Z,50.95
2017-06-04T21:36:09.127Z,50.82
2017-06-04T21:38:36.357Z,50.43
2017-06-04T21:41:02.753Z,50.95
2017-06-04T21:43:29.103Z,51.58
2017-06-04T21:46:01.920Z,54.87
2017-06-04T21:48:31.543Z,57.11
2017-06-04T21:50:57.879Z,53.83
2017-06-04T21:53:24.239Z,57.95
2017-06-04T21:55:50.591Z,61.76
2017-06-04T21:58:16.915Z,59.64
2017-06-04T22:00:43.272Z,61.40
2017-06-04T22:03:09.670Z,61.31
2017-06-04T22:05:36.017Z,60.72
2017-06-04T22:08:02.372Z,58.62
2017-06-04T22:10:28.678Z,57.11
2017-06-04T22:12:55.074Z,57.93
2017-06-04T22:15:21.406Z,55.82
2017-06-04T22:17:47.738Z,54.27
2017-06-04T22:20:14.078Z,55.50
2017-06-04T22:22:40.643Z,56.01
2017-06-04T22:25:06.980Z,62.43
2017-06-04T22:27:33.303Z,63.59
2017-06-04T22:29:59.657Z,65.48
2017-06-04T22:32:26.420Z,64.85
2017-06-04T22:34:52.755Z,64.15
2017-06-04T22:37:19.117Z,65.13
2017-06-04T22:39:45.538Z,64.15
2017-06-04T22:42:11.862Z,66.54
2017-06-04T22:44:42.129Z,64.43
2017-06-04T22:47:08.496Z,65.82
2017-06-04T22:49:34.830Z,63.63
2017-06-04T22:52:07.922Z,68.21
2017-06-04T22:54:40.869Z,68.71
2017-06-04T22:57:10.913Z,62.16
2017-06-04T22:59:43.148Z,57.70
2017-06-04T23:02:15.943Z,57.77
2017-06-04T23:07:38.000Z,56.93
2017-06-04T23:10:04.311Z,56.83
2017-06-04T23:12:30.642Z,56.59
2017-06-04T23:14:57.020Z,58.74
2017-06-04T23:17:23.365Z,64.51
2017-06-04T23:19:49.702Z,67.14
2017-06-04T23:22:16.039Z,69.48
2017-06-04T23:24:42.438Z,68.13
2017-06-04T23:27:08.811Z,67.76
2017-06-04T23:29:35.133Z,69.78
2017-06-04T23:32:01.438Z,70.40
2017-06-04T23:34:27.792Z,69.97
2017-06-04T23:36:54.165Z,69.01
2017-06-04T23:39:20.517Z,61.98
2017-06-04T23:41:46.867Z,61.43
2017-06-04T23:44:13.220Z,60.70
2017-06-04T23:46:39.566Z,67.87
2017-06-04T23:49:05.883Z,68.39
2017-06-04T23:51:32.226Z,72.63
2017-06-04T23:53:58.639Z,72.45
2017-06-04T23:56:24.962Z,67.22
2017-06-04T23:58:51.284Z,68.18
